sensor_id;sensor_type;location;lat;lon;timestamp;P1;durP1;ratioP1;P2;durP2;ratioP2
76826;SDS011;65788;52.284;20.890;2022-12-07T00:02:09;11.50;;;9.70;;
76826;SDS011;65788;52.284;20.890;2022-12-07T00:04:40;11.50;;;9.40;;
76826;SDS011;65788;52.284;20.890;2022-12-07T00:07:11;11.60;;;9.10;;
76826;SDS011;65788;52.284;20.890;2022-12-07T00:09:43;11.20;;;9.60;;
76826;SDS011;65788;52.284;20.890;2022-12-07T00:12:15;11.20;;;9.50;;
76826;SDS011;65788;52.284;20.890;2022-12-07T00:14:46;12.00;;;9.70;;
76826;SDS011;65788;52.284;20.890;2022-12-07T00:17:17;12.20;;;10.10;;
76826;SDS011;65788;52.284;20.890;2022-12-07T00:19:48;10.60;;;9.10;;
76826;SDS011;65788;52.284;20.890;2022-12-07T00:22:19;11.20;;;9.20;;
76826;SDS011;65788;52.284;20.890;2022-12-07T00:24:50;10.80;;;9.20;;
76826;SDS011;65788;52.284;20.890;2022-12-07T00:27:21;11.10;;;9.70;;
76826;SDS011;65788;52.284;20.890;2022-12-07T00:29:53;10.60;;;9.30;;
76826;SDS011;65788;52.284;20.890;2022-12-07T00:32:24;12.90;;;9.70;;
76826;SDS011;65788;52.284;20.890;2022-12-07T00:34:55;11.50;;;9.50;;
76826;SDS011;65788;52.284;20.890;2022-12-07T00:37:26;10.90;;;9.20;;
76826;SDS011;65788;52.284;20.890;2022-12-07T00:39:57;10.60;;;8.60;;
76826;SDS011;65788;52.284;20.890;2022-12-07T00:42:31;11.10;;;9.20;;
76826;SDS011;65788;52.284;20.890;2022-12-07T00:45:01;10.80;;;9.10;;
76826;SDS011;65788;52.284;20.890;2022-12-07T00:47:33;10.80;;;8.90;;
76826;SDS011;65788;52.284;20.890;2022-12-07T00:50:07;12.20;;;9.30;;
76826;SDS011;65788;52.284;20.890;2022-12-07T00:52:38;10.80;;;9.30;;
76826;SDS011;65788;52.284;20.890;2022-12-07T00:55:09;11.90;;;9.60;;
76826;SDS011;65788;52.284;20.890;2022-12-07T00:57:40;11.20;;;9.40;;
76826;SDS011;65788;52.284;20.890;2022-12-07T01:00:12;11.50;;;9.40;;
76826;SDS011;65788;52.284;20.890;2022-12-07T01:02:44;11.30;;;9.20;;
76826;SDS011;65788;52.284;20.890;2022-12-07T01:05:15;13.00;;;10.60;;
76826;SDS011;65788;52.284;20.890;2022-12-07T01:07:46;11.40;;;9.60;;
76826;SDS011;65788;52.284;20.890;2022-12-07T01:10:17;13.00;;;10.00;;
76826;SDS011;65788;52.284;20.890;2022-12-07T01:12:48;12.00;;;9.40;;
76826;SDS011;65788;52.284;20.890;2022-12-07T01:15:19;12.30;;;10.10;;
76826;SDS011;65788;52.284;20.890;2022-12-07T01:17:51;11.20;;;9.50;;
76826;SDS011;65788;52.284;20.890;2022-12-07T01:20:22;13.50;;;10.30;;
76826;SDS011;65788;52.284;20.890;2022-12-07T01:22:53;12.20;;;10.00;;
76826;SDS011;65788;52.284;20.890;2022-12-07T01:25:24;12.00;;;10.30;;
76826;SDS011;65788;52.284;20.890;2022-12-07T01:27:55;12.60;;;10.70;;
76826;SDS011;65788;52.284;20.890;2022-12-07T01:30:26;12.00;;;9.70;;
76826;SDS011;65788;52.284;20.890;2022-12-07T01:32:57;13.90;;;10.80;;
76826;SDS011;65788;52.284;20.890;2022-12-07T01:35:28;12.20;;;10.30;;
76826;SDS011;65788;52.284;20.890;2022-12-07T01:37:59;13.40;;;10.60;;
76826;SDS011;65788;52.284;20.890;2022-12-07T01:40:33;13.10;;;10.40;;
76826;SDS011;65788;52.284;20.890;2022-12-07T01:43:04;13.70;;;10.70;;
76826;SDS011;65788;52.284;20.890;2022-12-07T01:45:39;12.90;;;10.50;;
76826;SDS011;65788;52.284;20.890;2022-12-07T01:48:11;14.40;;;11.50;;
76826;SDS011;65788;52.284;20.890;2022-12-07T01:50:45;14.90;;;10.50;;
76826;SDS011;65788;52.284;20.890;2022-12-07T01:53:21;13.50;;;10.40;;
76826;SDS011;65788;52.284;20.890;2022-12-07T01:55:58;14.80;;;10.60;;
76826;SDS011;65788;52.284;20.890;2022-12-07T01:58:30;13.30;;;10.70;;
76826;SDS011;65788;52.284;20.890;2022-12-07T02:01:01;13.70;;;10.90;;
76826;SDS011;65788;52.284;20.890;2022-12-07T02:03:34;13.70;;;10.60;;
76826;SDS011;65788;52.284;20.890;2022-12-07T02:06:10;13.30;;;10.70;;
76826;SDS011;65788;52.284;20.890;2022-12-07T02:08:45;13.70;;;10.90;;
76826;SDS011;65788;52.284;20.890;2022-12-07T02:11:17;13.40;;;10.40;;
76826;SDS011;65788;52.284;20.890;2022-12-07T02:13:49;12.90;;;10.10;;
76826;SDS011;65788;52.284;20.890;2022-12-07T02:16:27;13.20;;;10.20;;
76826;SDS011;65788;52.284;20.890;2022-12-07T02:19:20;13.20;;;10.30;;
76826;SDS011;65788;52.284;20.890;2022-12-07T02:22:11;12.90;;;10.00;;
76826;SDS011;65788;52.284;20.890;2022-12-07T02:25:01;12.60;;;9.80;;
76826;SDS011;65788;52.284;20.890;2022-12-07T02:27:46;13.10;;;9.60;;
76826;SDS011;65788;52.284;20.890;2022-12-07T02:30:22;11.40;;;9.20;;
76826;SDS011;65788;52.284;20.890;2022-12-07T02:32:58;12.00;;;9.50;;
76826;SDS011;65788;52.284;20.890;2022-12-07T02:35:33;12.30;;;9.80;;
76826;SDS011;65788;52.284;20.890;2022-12-07T02:38:13;11.70;;;9.30;;
76826;SDS011;65788;52.284;20.890;2022-12-07T02:40:50;13.00;;;9.60;;
76826;SDS011;65788;52.284;20.890;2022-12-07T02:43:24;12.20;;;9.70;;
76826;SDS011;65788;52.284;20.890;2022-12-07T02:45:58;11.60;;;8.80;;
76826;SDS011;65788;52.284;20.890;2022-12-07T02:48:34;11.00;;;9.00;;
76826;SDS011;65788;52.284;20.890;2022-12-07T02:51:09;11.00;;;8.70;;
76826;SDS011;65788;52.284;20.890;2022-12-07T02:53:41;12.00;;;9.60;;
76826;SDS011;65788;52.284;20.890;2022-12-07T02:56:13;10.70;;;9.00;;
76826;SDS011;65788;52.284;20.890;2022-12-07T02:59:00;11.20;;;8.80;;
76826;SDS011;65788;52.284;20.890;2022-12-07T03:01:40;10.80;;;9.00;;
76826;SDS011;65788;52.284;20.890;2022-12-07T03:04:22;10.90;;;8.40;;
76826;SDS011;65788;52.284;20.890;2022-12-07T03:07:08;9.80;;;8.10;;
76826;SDS011;65788;52.284;20.890;2022-12-07T03:09:49;10.70;;;8.00;;
76826;SDS011;65788;52.284;20.890;2022-12-07T03:12:28;10.10;;;7.70;;
76826;SDS011;65788;52.284;20.890;2022-12-07T03:15:12;10.30;;;8.00;;
76826;SDS011;65788;52.284;20.890;2022-12-07T03:17:47;9.50;;;7.90;;
76826;SDS011;65788;52.284;20.890;2022-12-07T03:20:21;9.70;;;7.40;;
76826;SDS011;65788;52.284;20.890;2022-12-07T03:22:55;9.00;;;7.30;;
76826;SDS011;65788;52.284;20.890;2022-12-07T03:25:27;10.10;;;7.80;;
76826;SDS011;65788;52.284;20.890;2022-12-07T03:28:01;9.40;;;7.60;;
76826;SDS011;65788;52.284;20.890;2022-12-07T03:30:36;10.40;;;7.80;;
76826;SDS011;65788;52.284;20.890;2022-12-07T03:33:15;9.10;;;7.10;;
76826;SDS011;65788;52.284;20.890;2022-12-07T03:35:53;9.60;;;7.50;;
76826;SDS011;65788;52.284;20.890;2022-12-07T03:38:33;9.30;;;7.50;;
76826;SDS011;65788;52.284;20.890;2022-12-07T03:41:08;9.50;;;7.50;;
76826;SDS011;65788;52.284;20.890;2022-12-07T03:43:44;9.00;;;7.20;;
76826;SDS011;65788;52.284;20.890;2022-12-07T03:46:17;8.90;;;6.90;;
76826;SDS011;65788;52.284;20.890;2022-12-07T03:48:57;8.40;;;6.70;;
76826;SDS011;65788;52.284;20.890;2022-12-07T03:51:36;8.70;;;6.80;;
76826;SDS011;65788;52.284;20.890;2022-12-07T03:54:15;8.80;;;6.90;;
76826;SDS011;65788;52.284;20.890;2022-12-07T03:56:49;8.40;;;6.60;;
76826;SDS011;65788;52.284;20.890;2022-12-07T03:59:22;8.40;;;6.70;;
76826;SDS011;65788;52.284;20.890;2022-12-07T04:01:55;8.80;;;7.00;;
76826;SDS011;65788;52.284;20.890;2022-12-07T04:04:30;9.00;;;7.10;;
76826;SDS011;65788;52.284;20.890;2022-12-07T04:07:02;8.60;;;6.90;;
76826;SDS011;65788;52.284;20.890;2022-12-07T04:09:33;7.60;;;6.00;;
76826;SDS011;65788;52.284;20.890;2022-12-07T04:12:06;7.70;;;6.20;;
76826;SDS011;65788;52.284;20.890;2022-12-07T04:14:39;8.00;;;6.40;;
76826;SDS011;65788;52.284;20.890;2022-12-07T04:17:10;7.10;;;5.60;;
76826;SDS011;65788;52.284;20.890;2022-12-07T04:19:42;8.70;;;6.40;;
76826;SDS011;65788;52.284;20.890;2022-12-07T04:22:13;7.90;;;6.00;;
76826;SDS011;65788;52.284;20.890;2022-12-07T04:24:44;8.10;;;6.20;;
76826;SDS011;65788;52.284;20.890;2022-12-07T04:27:15;7.40;;;6.10;;
76826;SDS011;65788;52.284;20.890;2022-12-07T04:29:46;7.80;;;5.70;;
76826;SDS011;65788;52.284;20.890;2022-12-07T04:32:17;7.70;;;5.90;;
76826;SDS011;65788;52.284;20.890;2022-12-07T04:34:48;7.70;;;6.00;;
76826;SDS011;65788;52.284;20.890;2022-12-07T04:37:19;8.10;;;5.60;;
76826;SDS011;65788;52.284;20.890;2022-12-07T04:39:49;7.50;;;5.80;;
76826;SDS011;65788;52.284;20.890;2022-12-07T04:42:21;7.10;;;5.60;;
76826;SDS011;65788;52.284;20.890;2022-12-07T04:44:55;6.20;;;5.20;;
76826;SDS011;65788;52.284;20.890;2022-12-07T04:47:26;6.60;;;5.40;;
76826;SDS011;65788;52.284;20.890;2022-12-07T04:49:57;7.40;;;5.40;;
76826;SDS011;65788;52.284;20.890;2022-12-07T04:52:28;7.20;;;5.20;;
76826;SDS011;65788;52.284;20.890;2022-12-07T04:54:58;7.20;;;5.50;;
76826;SDS011;65788;52.284;20.890;2022-12-07T04:57:29;5.60;;;4.80;;
76826;SDS011;65788;52.284;20.890;2022-12-07T05:00:00;6.90;;;5.20;;
76826;SDS011;65788;52.284;20.890;2022-12-07T05:02:31;7.00;;;4.90;;
76826;SDS011;65788;52.284;20.890;2022-12-07T05:05:03;6.60;;;4.90;;
76826;SDS011;65788;52.284;20.890;2022-12-07T05:07:34;7.00;;;5.10;;
76826;SDS011;65788;52.284;20.890;2022-12-07T05:10:10;6.80;;;5.00;;
76826;SDS011;65788;52.284;20.890;2022-12-07T05:12:40;7.20;;;5.10;;
76826;SDS011;65788;52.284;20.890;2022-12-07T05:15:12;6.60;;;4.80;;
76826;SDS011;65788;52.284;20.890;2022-12-07T05:17:44;7.60;;;5.60;;
76826;SDS011;65788;52.284;20.890;2022-12-07T05:20:17;6.60;;;4.50;;
76826;SDS011;65788;52.284;20.890;2022-12-07T05:22:49;6.70;;;4.90;;
76826;SDS011;65788;52.284;20.890;2022-12-07T05:25:20;6.90;;;4.80;;
76826;SDS011;65788;52.284;20.890;2022-12-07T05:27:51;7.20;;;5.10;;
76826;SDS011;65788;52.284;20.890;2022-12-07T05:30:24;7.60;;;5.40;;
76826;SDS011;65788;52.284;20.890;2022-12-07T05:32:55;8.00;;;5.00;;
76826;SDS011;65788;52.284;20.890;2022-12-07T05:35:28;6.70;;;4.90;;
76826;SDS011;65788;52.284;20.890;2022-12-07T05:37:59;6.50;;;4.90;;
76826;SDS011;65788;52.284;20.890;2022-12-07T05:40:30;6.90;;;4.90;;
76826;SDS011;65788;52.284;20.890;2022-12-07T05:43:04;6.20;;;4.80;;
76826;SDS011;65788;52.284;20.890;2022-12-07T05:45:37;7.40;;;5.00;;
76826;SDS011;65788;52.284;20.890;2022-12-07T05:48:08;6.30;;;4.90;;
76826;SDS011;65788;52.284;20.890;2022-12-07T05:50:40;6.70;;;4.80;;
76826;SDS011;65788;52.284;20.890;2022-12-07T05:53:11;6.90;;;5.10;;
76826;SDS011;65788;52.284;20.890;2022-12-07T05:55:42;6.90;;;4.80;;
76826;SDS011;65788;52.284;20.890;2022-12-07T05:58:13;7.70;;;4.90;;
76826;SDS011;65788;52.284;20.890;2022-12-07T06:01:01;7.50;;;4.70;;
76826;SDS011;65788;52.284;20.890;2022-12-07T06:03:32;7.80;;;4.90;;
76826;SDS011;65788;52.284;20.890;2022-12-07T06:06:03;6.40;;;4.40;;
76826;SDS011;65788;52.284;20.890;2022-12-07T06:08:34;7.50;;;4.80;;
76826;SDS011;65788;52.284;20.890;2022-12-07T06:11:05;6.60;;;4.70;;
76826;SDS011;65788;52.284;20.890;2022-12-07T06:13:54;6.90;;;5.00;;
76826;SDS011;65788;52.284;20.890;2022-12-07T06:16:25;6.90;;;4.60;;
76826;SDS011;65788;52.284;20.890;2022-12-07T06:18:56;6.20;;;4.90;;
76826;SDS011;65788;52.284;20.890;2022-12-07T06:21:29;7.30;;;4.50;;
76826;SDS011;65788;52.284;20.890;2022-12-07T06:24:00;7.20;;;4.60;;
76826;SDS011;65788;52.284;20.890;2022-12-07T06:26:31;7.30;;;4.50;;
76826;SDS011;65788;52.284;20.890;2022-12-07T06:29:03;5.80;;;4.40;;
76826;SDS011;65788;52.284;20.890;2022-12-07T06:31:34;5.60;;;4.10;;
76826;SDS011;65788;52.284;20.890;2022-12-07T06:34:06;6.00;;;4.10;;
76826;SDS011;65788;52.284;20.890;2022-12-07T06:36:41;6.60;;;4.10;;
76826;SDS011;65788;52.284;20.890;2022-12-07T06:39:12;6.30;;;4.10;;
76826;SDS011;65788;52.284;20.890;2022-12-07T06:41:43;6.30;;;4.10;;
76826;SDS011;65788;52.284;20.890;2022-12-07T06:44:17;6.40;;;4.40;;
76826;SDS011;65788;52.284;20.890;2022-12-07T06:46:50;5.80;;;4.20;;
76826;SDS011;65788;52.284;20.890;2022-12-07T06:49:21;6.80;;;4.20;;
76826;SDS011;65788;52.284;20.890;2022-12-07T06:51:52;5.90;;;4.20;;
76826;SDS011;65788;52.284;20.890;2022-12-07T06:54:23;5.70;;;3.90;;
76826;SDS011;65788;52.284;20.890;2022-12-07T06:56:54;6.60;;;4.40;;
76826;SDS011;65788;52.284;20.890;2022-12-07T06:59:25;5.80;;;4.40;;
76826;SDS011;65788;52.284;20.890;2022-12-07T07:01:56;5.70;;;4.10;;
76826;SDS011;65788;52.284;20.890;2022-12-07T07:04:33;5.30;;;3.70;;
76826;SDS011;65788;52.284;20.890;2022-12-07T07:07:05;6.70;;;4.20;;
76826;SDS011;65788;52.284;20.890;2022-12-07T07:09:36;5.80;;;4.00;;
76826;SDS011;65788;52.284;20.890;2022-12-07T07:12:07;5.90;;;3.80;;
76826;SDS011;65788;52.284;20.890;2022-12-07T07:14:38;5.00;;;3.80;;
76826;SDS011;65788;52.284;20.890;2022-12-07T07:17:11;6.60;;;4.50;;
76826;SDS011;65788;52.284;20.890;2022-12-07T07:19:42;5.40;;;4.00;;
76826;SDS011;65788;52.284;20.890;2022-12-07T07:22:13;4.90;;;3.70;;
76826;SDS011;65788;52.284;20.890;2022-12-07T07:24:44;5.80;;;3.80;;
76826;SDS011;65788;52.284;20.890;2022-12-07T07:27:16;5.80;;;3.90;;
76826;SDS011;65788;52.284;20.890;2022-12-07T07:29:46;5.30;;;3.60;;
76826;SDS011;65788;52.284;20.890;2022-12-07T07:32:17;5.40;;;3.60;;
76826;SDS011;65788;52.284;20.890;2022-12-07T07:34:50;6.40;;;4.00;;
76826;SDS011;65788;52.284;20.890;2022-12-07T07:37:23;5.70;;;3.80;;
76826;SDS011;65788;52.284;20.890;2022-12-07T07:39:57;5.80;;;3.90;;
76826;SDS011;65788;52.284;20.890;2022-12-07T07:42:29;6.10;;;3.70;;
76826;SDS011;65788;52.284;20.890;2022-12-07T07:45:00;6.00;;;4.00;;
76826;SDS011;65788;52.284;20.890;2022-12-07T07:47:32;5.30;;;3.60;;
76826;SDS011;65788;52.284;20.890;2022-12-07T07:50:04;4.90;;;3.70;;
76826;SDS011;65788;52.284;20.890;2022-12-07T07:52:36;5.50;;;3.60;;
76826;SDS011;65788;52.284;20.890;2022-12-07T07:55:08;6.70;;;3.90;;
76826;SDS011;65788;52.284;20.890;2022-12-07T07:57:40;5.00;;;3.80;;
76826;SDS011;65788;52.284;20.890;2022-12-07T08:00:12;4.90;;;3.50;;
76826;SDS011;65788;52.284;20.890;2022-12-07T08:02:45;5.00;;;3.70;;
76826;SDS011;65788;52.284;20.890;2022-12-07T08:05:17;5.90;;;3.50;;
76826;SDS011;65788;52.284;20.890;2022-12-07T08:07:47;5.60;;;3.80;;
76826;SDS011;65788;52.284;20.890;2022-12-07T08:10:18;5.00;;;3.50;;
76826;SDS011;65788;52.284;20.890;2022-12-07T08:12:49;5.80;;;3.80;;
76826;SDS011;65788;52.284;20.890;2022-12-07T08:15:38;5.00;;;3.50;;
76826;SDS011;65788;52.284;20.890;2022-12-07T08:18:11;4.90;;;3.50;;
76826;SDS011;65788;52.284;20.890;2022-12-07T08:20:42;6.40;;;3.50;;
76826;SDS011;65788;52.284;20.890;2022-12-07T08:23:14;5.10;;;3.50;;
76826;SDS011;65788;52.284;20.890;2022-12-07T08:25:45;5.70;;;3.90;;
76826;SDS011;65788;52.284;20.890;2022-12-07T08:28:17;5.70;;;3.50;;
76826;SDS011;65788;52.284;20.890;2022-12-07T08:30:49;4.80;;;3.50;;
76826;SDS011;65788;52.284;20.890;2022-12-07T08:33:20;7.10;;;3.70;;
76826;SDS011;65788;52.284;20.890;2022-12-07T08:35:52;5.70;;;3.70;;
76826;SDS011;65788;52.284;20.890;2022-12-07T08:38:25;6.00;;;3.70;;
76826;SDS011;65788;52.284;20.890;2022-12-07T08:40:57;5.30;;;3.60;;
76826;SDS011;65788;52.284;20.890;2022-12-07T08:43:28;6.00;;;3.70;;
76826;SDS011;65788;52.284;20.890;2022-12-07T08:46:02;5.20;;;3.80;;
76826;SDS011;65788;52.284;20.890;2022-12-07T08:48:40;6.50;;;3.90;;
76826;SDS011;65788;52.284;20.890;2022-12-07T08:51:14;7.30;;;4.00;;
76826;SDS011;65788;52.284;20.890;2022-12-07T08:53:45;5.70;;;3.70;;
76826;SDS011;65788;52.284;20.890;2022-12-07T08:56:17;5.90;;;3.70;;
76826;SDS011;65788;52.284;20.890;2022-12-07T08:58:49;6.10;;;3.90;;
76826;SDS011;65788;52.284;20.890;2022-12-07T09:01:20;6.00;;;3.80;;
76826;SDS011;65788;52.284;20.890;2022-12-07T09:03:51;6.20;;;4.00;;
76826;SDS011;65788;52.284;20.890;2022-12-07T09:06:22;5.80;;;3.90;;
76826;SDS011;65788;52.284;20.890;2022-12-07T09:08:56;6.40;;;3.80;;
76826;SDS011;65788;52.284;20.890;2022-12-07T09:11:30;6.00;;;3.80;;
76826;SDS011;65788;52.284;20.890;2022-12-07T09:14:01;5.70;;;4.10;;
76826;SDS011;65788;52.284;20.890;2022-12-07T09:16:33;6.50;;;3.70;;
76826;SDS011;65788;52.284;20.890;2022-12-07T09:19:06;6.50;;;4.10;;
76826;SDS011;65788;52.284;20.890;2022-12-07T09:21:38;5.60;;;3.70;;
76826;SDS011;65788;52.284;20.890;2022-12-07T09:24:08;6.10;;;3.70;;
76826;SDS011;65788;52.284;20.890;2022-12-07T09:26:40;6.00;;;3.60;;
76826;SDS011;65788;52.284;20.890;2022-12-07T09:29:12;5.90;;;3.80;;
76826;SDS011;65788;52.284;20.890;2022-12-07T09:31:42;6.10;;;4.10;;
76826;SDS011;65788;52.284;20.890;2022-12-07T09:34:13;6.80;;;3.90;;
76826;SDS011;65788;52.284;20.890;2022-12-07T09:36:45;6.20;;;3.60;;
76826;SDS011;65788;52.284;20.890;2022-12-07T09:39:16;7.50;;;3.80;;
76826;SDS011;65788;52.284;20.890;2022-12-07T09:41:47;7.80;;;4.20;;
76826;SDS011;65788;52.284;20.890;2022-12-07T09:44:20;6.10;;;3.90;;
76826;SDS011;65788;52.284;20.890;2022-12-07T09:46:53;6.90;;;4.20;;
76826;SDS011;65788;52.284;20.890;2022-12-07T09:49:27;7.10;;;3.90;;
76826;SDS011;65788;52.284;20.890;2022-12-07T09:52:02;6.20;;;4.10;;
76826;SDS011;65788;52.284;20.890;2022-12-07T09:54:48;5.50;;;3.90;;
76826;SDS011;65788;52.284;20.890;2022-12-07T09:57:22;5.40;;;3.60;;
76826;SDS011;65788;52.284;20.890;2022-12-07T10:00:01;6.50;;;3.90;;
76826;SDS011;65788;52.284;20.890;2022-12-07T10:02:37;5.90;;;3.50;;
76826;SDS011;65788;52.284;20.890;2022-12-07T10:05:12;6.40;;;3.90;;
76826;SDS011;65788;52.284;20.890;2022-12-07T10:07:45;6.10;;;4.00;;
76826;SDS011;65788;52.284;20.890;2022-12-07T10:10:17;4.60;;;3.50;;
76826;SDS011;65788;52.284;20.890;2022-12-07T10:12:58;6.30;;;4.20;;
76826;SDS011;65788;52.284;20.890;2022-12-07T10:15:44;6.40;;;3.80;;
76826;SDS011;65788;52.284;20.890;2022-12-07T10:18:21;5.90;;;3.70;;
76826;SDS011;65788;52.284;20.890;2022-12-07T10:21:14;7.20;;;3.80;;
76826;SDS011;65788;52.284;20.890;2022-12-07T10:24:00;5.60;;;4.00;;
76826;SDS011;65788;52.284;20.890;2022-12-07T10:26:34;5.80;;;3.60;;
76826;SDS011;65788;52.284;20.890;2022-12-07T10:29:15;6.30;;;3.60;;
76826;SDS011;65788;52.284;20.890;2022-12-07T10:31:49;6.10;;;3.60;;
76826;SDS011;65788;52.284;20.890;2022-12-07T10:34:26;5.40;;;3.40;;
76826;SDS011;65788;52.284;20.890;2022-12-07T10:37:13;5.60;;;3.50;;
76826;SDS011;65788;52.284;20.890;2022-12-07T10:39:49;5.60;;;3.40;;
76826;SDS011;65788;52.284;20.890;2022-12-07T10:42:23;5.00;;;3.40;;
76826;SDS011;65788;52.284;20.890;2022-12-07T10:45:08;5.60;;;3.80;;
76826;SDS011;65788;52.284;20.890;2022-12-07T10:47:44;5.60;;;3.80;;
76826;SDS011;65788;52.284;20.890;2022-12-07T10:50:30;5.20;;;3.60;;
76826;SDS011;65788;52.284;20.890;2022-12-07T10:53:30;6.40;;;3.90;;
76826;SDS011;65788;52.284;20.890;2022-12-07T10:56:23;5.80;;;3.40;;
76826;SDS011;65788;52.284;20.890;2022-12-07T10:59:16;5.50;;;3.60;;
76826;SDS011;65788;52.284;20.890;2022-12-07T11:02:10;5.10;;;3.30;;
76826;SDS011;65788;52.284;20.890;2022-12-07T11:04:57;4.10;;;3.20;;
76826;SDS011;65788;52.284;20.890;2022-12-07T11:07:39;6.00;;;3.80;;
76826;SDS011;65788;52.284;20.890;2022-12-07T11:10:22;7.40;;;3.70;;
76826;SDS011;65788;52.284;20.890;2022-12-07T11:13:08;5.40;;;3.70;;
76826;SDS011;65788;52.284;20.890;2022-12-07T11:15:59;4.40;;;3.30;;
76826;SDS011;65788;52.284;20.890;2022-12-07T11:18:39;6.40;;;3.40;;
76826;SDS011;65788;52.284;20.890;2022-12-07T11:21:17;4.20;;;3.10;;
76826;SDS011;65788;52.284;20.890;2022-12-07T11:23:59;4.40;;;3.30;;
76826;SDS011;65788;52.284;20.890;2022-12-07T11:26:45;4.70;;;3.20;;
76826;SDS011;65788;52.284;20.890;2022-12-07T11:29:39;5.60;;;3.40;;
76826;SDS011;65788;52.284;20.890;2022-12-07T11:32:19;5.20;;;3.60;;
76826;SDS011;65788;52.284;20.890;2022-12-07T11:35:05;4.60;;;3.10;;
76826;SDS011;65788;52.284;20.890;2022-12-07T11:37:46;6.20;;;3.40;;
76826;SDS011;65788;52.284;20.890;2022-12-07T11:40:21;5.50;;;3.40;;
76826;SDS011;65788;52.284;20.890;2022-12-07T11:43:04;4.70;;;3.10;;
76826;SDS011;65788;52.284;20.890;2022-12-07T11:45:46;5.50;;;3.20;;
76826;SDS011;65788;52.284;20.890;2022-12-07T11:50:54;4.80;;;3.10;;
76826;SDS011;65788;52.284;20.890;2022-12-07T11:53:29;4.10;;;3.00;;
76826;SDS011;65788;52.284;20.890;2022-12-07T11:56:06;5.00;;;3.10;;
76826;SDS011;65788;52.284;20.890;2022-12-07T11:58:44;4.70;;;3.20;;
76826;SDS011;65788;52.284;20.890;2022-12-07T12:01:26;4.40;;;3.10;;
76826;SDS011;65788;52.284;20.890;2022-12-07T12:04:22;4.30;;;2.90;;
76826;SDS011;65788;52.284;20.890;2022-12-07T12:07:02;4.20;;;3.00;;
76826;SDS011;65788;52.284;20.890;2022-12-07T12:09:35;4.30;;;3.10;;
76826;SDS011;65788;52.284;20.890;2022-12-07T12:15:18;4.90;;;3.10;;
76826;SDS011;65788;52.284;20.890;2022-12-07T12:18:11;4.20;;;3.10;;
76826;SDS011;65788;52.284;20.890;2022-12-07T12:20:57;4.50;;;3.10;;
76826;SDS011;65788;52.284;20.890;2022-12-07T12:23:34;4.60;;;3.00;;
76826;SDS011;65788;52.284;20.890;2022-12-07T12:26:15;4.60;;;3.10;;
76826;SDS011;65788;52.284;20.890;2022-12-07T12:28:52;3.90;;;2.80;;
76826;SDS011;65788;52.284;20.890;2022-12-07T12:34:33;4.80;;;3.10;;
76826;SDS011;65788;52.284;20.890;2022-12-07T12:46:44;3.90;;;2.70;;
76826;SDS011;65788;52.284;20.890;2022-12-07T12:49:35;4.40;;;3.00;;
76826;SDS011;65788;52.284;20.890;2022-12-07T12:55:13;4.90;;;2.90;;
76826;SDS011;65788;52.284;20.890;2022-12-07T12:57:49;4.40;;;2.70;;
76826;SDS011;65788;52.284;20.890;2022-12-07T13:04:24;5.10;;;2.90;;
76826;SDS011;65788;52.284;20.890;2022-12-07T13:07:03;4.50;;;3.00;;
76826;SDS011;65788;52.284;20.890;2022-12-07T13:09:38;4.30;;;2.80;;
76826;SDS011;65788;52.284;20.890;2022-12-07T13:12:14;4.60;;;3.00;;
76826;SDS011;65788;52.284;20.890;2022-12-07T13:14:56;4.50;;;2.80;;
76826;SDS011;65788;52.284;20.890;2022-12-07T13:20:47;4.20;;;2.60;;
76826;SDS011;65788;52.284;20.890;2022-12-07T13:23:20;3.90;;;2.80;;
76826;SDS011;65788;52.284;20.890;2022-12-07T13:26:04;4.20;;;3.00;;
76826;SDS011;65788;52.284;20.890;2022-12-07T13:28:46;4.20;;;2.80;;
76826;SDS011;65788;52.284;20.890;2022-12-07T13:31:35;4.00;;;2.50;;
76826;SDS011;65788;52.284;20.890;2022-12-07T13:37:00;4.10;;;2.80;;
76826;SDS011;65788;52.284;20.890;2022-12-07T13:39:50;3.60;;;2.60;;
76826;SDS011;65788;52.284;20.890;2022-12-07T13:42:24;4.90;;;2.70;;
76826;SDS011;65788;52.284;20.890;2022-12-07T13:44:58;4.30;;;2.60;;
76826;SDS011;65788;52.284;20.890;2022-12-07T13:47:47;4.70;;;2.80;;
76826;SDS011;65788;52.284;20.890;2022-12-07T13:50:23;3.90;;;2.60;;
76826;SDS011;65788;52.284;20.890;2022-12-07T13:52:59;4.30;;;2.90;;
76826;SDS011;65788;52.284;20.890;2022-12-07T13:55:30;4.00;;;2.80;;
76826;SDS011;65788;52.284;20.890;2022-12-07T13:58:01;3.80;;;2.60;;
76826;SDS011;65788;52.284;20.890;2022-12-07T14:00:32;4.30;;;2.90;;
76826;SDS011;65788;52.284;20.890;2022-12-07T14:03:04;3.90;;;2.70;;
76826;SDS011;65788;52.284;20.890;2022-12-07T14:08:49;4.10;;;2.80;;
76826;SDS011;65788;52.284;20.890;2022-12-07T14:11:34;4.40;;;2.60;;
76826;SDS011;65788;52.284;20.890;2022-12-07T14:14:10;4.40;;;2.80;;
76826;SDS011;65788;52.284;20.890;2022-12-07T14:16:54;4.80;;;2.40;;
76826;SDS011;65788;52.284;20.890;2022-12-07T14:19:42;4.10;;;2.80;;
76826;SDS011;65788;52.284;20.890;2022-12-07T14:22:20;4.30;;;3.00;;
76826;SDS011;65788;52.284;20.890;2022-12-07T14:24:59;3.50;;;2.50;;
76826;SDS011;65788;52.284;20.890;2022-12-07T14:27:46;4.30;;;2.80;;
76826;SDS011;65788;52.284;20.890;2022-12-07T14:30:24;4.10;;;2.60;;
76826;SDS011;65788;52.284;20.890;2022-12-07T14:32:58;4.40;;;2.70;;
76826;SDS011;65788;52.284;20.890;2022-12-07T14:35:31;4.40;;;2.90;;
76826;SDS011;65788;52.284;20.890;2022-12-07T14:38:02;4.00;;;2.70;;
76826;SDS011;65788;52.284;20.890;2022-12-07T14:40:32;4.40;;;3.00;;
76826;SDS011;65788;52.284;20.890;2022-12-07T14:43:04;4.30;;;2.60;;
76826;SDS011;65788;52.284;20.890;2022-12-07T14:45:40;3.60;;;2.60;;
76826;SDS011;65788;52.284;20.890;2022-12-07T14:48:12;5.10;;;3.00;;
76826;SDS011;65788;52.284;20.890;2022-12-07T14:50:45;4.80;;;2.80;;
76826;SDS011;65788;52.284;20.890;2022-12-07T14:53:21;4.70;;;2.80;;
76826;SDS011;65788;52.284;20.890;2022-12-07T14:55:57;5.00;;;3.10;;
76826;SDS011;65788;52.284;20.890;2022-12-07T14:58:28;4.80;;;2.90;;
76826;SDS011;65788;52.284;20.890;2022-12-07T15:01:00;4.80;;;3.00;;
76826;SDS011;65788;52.284;20.890;2022-12-07T15:03:31;4.80;;;3.40;;
76826;SDS011;65788;52.284;20.890;2022-12-07T15:06:05;5.90;;;3.50;;
76826;SDS011;65788;52.284;20.890;2022-12-07T15:08:42;5.20;;;3.30;;
76826;SDS011;65788;52.284;20.890;2022-12-07T15:11:13;5.70;;;3.30;;
76826;SDS011;65788;52.284;20.890;2022-12-07T15:13:44;7.20;;;3.50;;
76826;SDS011;65788;52.284;20.890;2022-12-07T15:16:33;6.90;;;3.80;;
76826;SDS011;65788;52.284;20.890;2022-12-07T15:19:05;7.00;;;4.00;;
76826;SDS011;65788;52.284;20.890;2022-12-07T15:21:40;5.90;;;3.30;;
76826;SDS011;65788;52.284;20.890;2022-12-07T15:24:12;7.40;;;4.00;;
76826;SDS011;65788;52.284;20.890;2022-12-07T15:26:46;8.30;;;3.70;;
76826;SDS011;65788;52.284;20.890;2022-12-07T15:29:21;8.00;;;3.90;;
76826;SDS011;65788;52.284;20.890;2022-12-07T15:31:51;10.20;;;4.10;;
76826;SDS011;65788;52.284;20.890;2022-12-07T15:34:23;7.00;;;4.00;;
76826;SDS011;65788;52.284;20.890;2022-12-07T15:36:59;8.80;;;3.80;;
76826;SDS011;65788;52.284;20.890;2022-12-07T15:39:30;8.70;;;3.80;;
76826;SDS011;65788;52.284;20.890;2022-12-07T15:42:01;6.20;;;3.60;;
76826;SDS011;65788;52.284;20.890;2022-12-07T15:44:33;8.30;;;4.00;;
76826;SDS011;65788;52.284;20.890;2022-12-07T15:47:22;8.10;;;3.70;;
76826;SDS011;65788;52.284;20.890;2022-12-07T15:49:53;8.40;;;3.80;;
76826;SDS011;65788;52.284;20.890;2022-12-07T15:52:24;6.20;;;3.70;;